Zim Shekou — A8KX2 — position and weather

sailwx.info

Track history (hours):
 
Tides and Currents Weather Stations Pressure Air Temp Water Temp Dewpoint Dewpoint Depression Visibility Wind Speed Wind Dir Waves Ship Positions

Zim Shekou

Last reported at 2018-Jul-16 08:06 UTC. Time now 2018-Jul-18 05:09 UTC.
Position N 01°27' E 104°31'.

Type: Ship. MMSI: 636013144.

Date/timePositionNaut miles runAvg speedWind from/ knotsBaromVisibWave heightAir tempDewpointWater temp
2018-Jul-16 08:06N 01°27' E 104°31'213.3
2018-Jul-16 07:57N 01°26' E 104°30'612.3
2018-Jul-16 07:30N 01°22' E 104°26'711.7
2018-Jul-16 06:56N 01°18' E 104°21'510.9
2018-Jul-16 06:30N 01°17' E 104°16'711.6
2018-Jul-16 05:55N 01°16' E 104°09'511.6
2018-Jul-16 05:30N 01°15' E 104°05'611.3
2018-Jul-16 05:00N 01°14' E 103°59'611.4
2018-Jul-16 04:30N 01°12' E 103°54'611.0
2018-Jul-16 04:00N 01°10' E 103°49'611.7
2018-Jul-16 03:30N 01°06' E 103°44'612.0
2018-Jul-16 03:00N 01°03' E 103°39'611.8
2018-Jul-16 02:30N 01°06' E 103°34'611.3
2018-Jul-16 01:59N 01°09' E 103°29'611.0
2018-Jul-16 01:29N 01°12' E 103°24'510.9
2018-Jul-16 01:00N 01°15' E 103°21'611.9
2018-Jul-16 00:30N 01°19' E 103°16'1015.9
2018-Jul-15 23:52N 01°26' E 103°08'  
Track history (hours):
 
Tides and Currents Weather Stations Pressure Air Temp Water Temp Dewpoint Dewpoint Depression Visibility Wind Speed Wind Dir Waves Ship Positions

Zim Shekou

Last reported at 2018-Jul-16 08:06 UTC. Time now 2018-Jul-18 05:09 UTC.
Position N 01°27' E 104°31'.

Type: Ship. MMSI: 636013144.

Date/timePositionNaut miles runAvg speedWind from/ knotsBaromVisibWave heightAir tempDewpointWater temp
2018-Jul-16 08:06N 01°27' E 104°31'213.3
2018-Jul-16 07:57N 01°26' E 104°30'612.3
2018-Jul-16 07:30N 01°22' E 104°26'711.7
2018-Jul-16 06:56N 01°18' E 104°21'510.9
2018-Jul-16 06:30N 01°17' E 104°16'711.6
2018-Jul-16 05:55N 01°16' E 104°09'511.6
2018-Jul-16 05:30N 01°15' E 104°05'611.3
2018-Jul-16 05:00N 01°14' E 103°59'611.4
2018-Jul-16 04:30N 01°12' E 103°54'611.0
2018-Jul-16 04:00N 01°10' E 103°49'611.7
2018-Jul-16 03:30N 01°06' E 103°44'612.0
2018-Jul-16 03:00N 01°03' E 103°39'611.8
2018-Jul-16 02:30N 01°06' E 103°34'611.3
2018-Jul-16 01:59N 01°09' E 103°29'611.0
2018-Jul-16 01:29N 01°12' E 103°24'510.9
2018-Jul-16 01:00N 01°15' E 103°21'611.9
2018-Jul-16 00:30N 01°19' E 103°16'1015.9
2018-Jul-15 23:52N 01°26' E 103°08'  

Dump ship's entire track history